sensor_id;sensor_type;location;lat;lon;timestamp;pressure;altitude;pressure_sealevel;temperature;humidity
36630;BME280;36256;42.154;23.002;2023-11-19T00:01:58;97178.97;;;6.57;64.01
36630;BME280;36256;42.154;23.002;2023-11-19T00:04:25;97167.03;;;6.57;62.57
36630;BME280;36256;42.154;23.002;2023-11-19T00:06:51;97177.69;;;6.62;62.99
36630;BME280;36256;42.154;23.002;2023-11-19T00:09:18;97173.44;;;6.73;63.11
36630;BME280;36256;42.154;23.002;2023-11-19T00:11:45;97176.28;;;6.70;61.79
36630;BME280;36256;42.154;23.002;2023-11-19T00:14:20;97186.09;;;6.78;62.19
36630;BME280;36256;42.154;23.002;2023-11-19T00:16:46;97179.75;;;6.58;61.84
36630;BME280;36256;42.154;23.002;2023-11-19T00:19:13;97191.25;;;6.60;61.74
36630;BME280;36256;42.154;23.002;2023-11-19T00:21:40;97188.31;;;6.67;61.03
36630;BME280;36256;42.154;23.002;2023-11-19T00:24:08;97189.88;;;6.68;62.44
36630;BME280;36256;42.154;23.002;2023-11-19T00:26:35;97184.16;;;6.75;62.13
36630;BME280;36256;42.154;23.002;2023-11-19T00:29:01;97188.91;;;6.78;62.23
36630;BME280;36256;42.154;23.002;2023-11-19T00:31:28;97196.88;;;6.76;63.11
36630;BME280;36256;42.154;23.002;2023-11-19T00:33:55;97205.56;;;6.62;62.57
36630;BME280;36256;42.154;23.002;2023-11-19T00:36:22;97182.19;;;6.56;64.32
36630;BME280;36256;42.154;23.002;2023-11-19T00:38:50;97207.50;;;6.65;62.88
36630;BME280;36256;42.154;23.002;2023-11-19T00:41:19;97214.63;;;6.66;63.14
36630;BME280;36256;42.154;23.002;2023-11-19T00:43:46;97209.13;;;6.62;63.21
36630;BME280;36256;42.154;23.002;2023-11-19T00:46:12;97215.16;;;6.61;62.61
36630;BME280;36256;42.154;23.002;2023-11-19T00:48:40;97224.22;;;6.65;63.82
36630;BME280;36256;42.154;23.002;2023-11-19T00:51:07;97221.94;;;6.60;62.80
36630;BME280;36256;42.154;23.002;2023-11-19T00:53:34;97232.16;;;6.66;63.06
36630;BME280;36256;42.154;23.002;2023-11-19T00:56:00;97234.66;;;6.61;63.59
36630;BME280;36256;42.154;23.002;2023-11-19T00:58:27;97241.66;;;6.69;63.52
36630;BME280;36256;42.154;23.002;2023-11-19T01:00:54;97219.50;;;6.62;62.84
36630;BME280;36256;42.154;23.002;2023-11-19T01:03:20;97237.00;;;6.62;63.22
36630;BME280;36256;42.154;23.002;2023-11-19T01:05:47;97244.09;;;6.67;64.05
36630;BME280;36256;42.154;23.002;2023-11-19T01:08:17;97241.78;;;6.62;63.66
36630;BME280;36256;42.154;23.002;2023-11-19T01:10:43;97257.31;;;6.63;63.14
36630;BME280;36256;42.154;23.002;2023-11-19T01:13:10;97247.00;;;6.60;63.90
36630;BME280;36256;42.154;23.002;2023-11-19T01:15:40;97258.38;;;6.69;63.09
36630;BME280;36256;42.154;23.002;2023-11-19T01:18:07;97244.50;;;6.65;62.47
36630;BME280;36256;42.154;23.002;2023-11-19T01:20:36;97240.88;;;6.68;64.19
36630;BME280;36256;42.154;23.002;2023-11-19T01:23:03;97254.72;;;6.72;63.49
36630;BME280;36256;42.154;23.002;2023-11-19T01:25:29;97247.94;;;6.73;64.05
36630;BME280;36256;42.154;23.002;2023-11-19T01:27:56;97257.72;;;6.81;63.07
36630;BME280;36256;42.154;23.002;2023-11-19T01:30:25;97257.25;;;6.86;62.37
36630;BME280;36256;42.154;23.002;2023-11-19T01:32:52;97247.94;;;6.92;62.99
36630;BME280;36256;42.154;23.002;2023-11-19T01:35:19;97245.66;;;6.68;63.39
36630;BME280;36256;42.154;23.002;2023-11-19T01:37:45;97262.81;;;6.66;62.48
36630;BME280;36256;42.154;23.002;2023-11-19T01:40:12;97271.63;;;6.65;63.50
36630;BME280;36256;42.154;23.002;2023-11-19T01:42:39;97277.91;;;6.69;63.04
36630;BME280;36256;42.154;23.002;2023-11-19T01:45:07;97276.84;;;6.63;63.59
36630;BME280;36256;42.154;23.002;2023-11-19T01:47:36;97273.69;;;6.61;63.37
36630;BME280;36256;42.154;23.002;2023-11-19T01:50:06;97267.53;;;6.50;63.82
36630;BME280;36256;42.154;23.002;2023-11-19T01:52:35;97262.75;;;6.50;63.86
36630;BME280;36256;42.154;23.002;2023-11-19T01:55:06;97260.38;;;6.49;63.16
36630;BME280;36256;42.154;23.002;2023-11-19T01:57:35;97258.72;;;6.51;62.83
36630;BME280;36256;42.154;23.002;2023-11-19T02:00:05;97249.66;;;6.47;63.64
36630;BME280;36256;42.154;23.002;2023-11-19T02:02:32;97258.28;;;6.53;63.78
36630;BME280;36256;42.154;23.002;2023-11-19T02:04:59;97257.31;;;6.63;64.36
36630;BME280;36256;42.154;23.002;2023-11-19T02:07:26;97258.59;;;6.58;64.19
36630;BME280;36256;42.154;23.002;2023-11-19T02:09:53;97243.72;;;6.45;63.44
36630;BME280;36256;42.154;23.002;2023-11-19T02:12:20;97245.59;;;6.52;63.44
36630;BME280;36256;42.154;23.002;2023-11-19T02:14:47;97235.16;;;6.56;63.48
36630;BME280;36256;42.154;23.002;2023-11-19T02:17:30;97228.50;;;6.50;62.85
36630;BME280;36256;42.154;23.002;2023-11-19T02:20:01;97231.28;;;6.50;63.63
36630;BME280;36256;42.154;23.002;2023-11-19T02:22:27;97239.88;;;6.59;64.98
36630;BME280;36256;42.154;23.002;2023-11-19T02:24:59;97231.16;;;6.37;63.13
36630;BME280;36256;42.154;23.002;2023-11-19T02:30:14;97240.16;;;6.45;64.50
36630;BME280;36256;42.154;23.002;2023-11-19T02:32:42;97231.78;;;6.45;64.35
36630;BME280;36256;42.154;23.002;2023-11-19T02:35:08;97249.88;;;6.37;64.40
36630;BME280;36256;42.154;23.002;2023-11-19T02:37:35;97247.19;;;6.29;64.46
36630;BME280;36256;42.154;23.002;2023-11-19T02:40:02;97237.41;;;6.21;65.83
36630;BME280;36256;42.154;23.002;2023-11-19T02:42:29;97251.22;;;6.28;63.53
36630;BME280;36256;42.154;23.002;2023-11-19T02:44:56;97247.06;;;6.37;64.09
36630;BME280;36256;42.154;23.002;2023-11-19T02:47:23;97240.72;;;6.36;63.78
36630;BME280;36256;42.154;23.002;2023-11-19T02:49:50;97243.13;;;6.34;63.00
36630;BME280;36256;42.154;23.002;2023-11-19T02:52:17;97251.00;;;6.39;62.90
36630;BME280;36256;42.154;23.002;2023-11-19T02:54:45;97253.22;;;6.28;64.47
36630;BME280;36256;42.154;23.002;2023-11-19T02:57:12;97253.28;;;6.24;63.36
36630;BME280;36256;42.154;23.002;2023-11-19T02:59:48;97247.72;;;6.24;63.22
36630;BME280;36256;42.154;23.002;2023-11-19T03:02:15;97261.69;;;6.21;63.92
36630;BME280;36256;42.154;23.002;2023-11-19T03:04:44;97252.13;;;6.22;63.62
36630;BME280;36256;42.154;23.002;2023-11-19T03:07:12;97250.16;;;6.22;63.28
36630;BME280;36256;42.154;23.002;2023-11-19T03:09:40;97255.47;;;6.13;64.90
36630;BME280;36256;42.154;23.002;2023-11-19T03:12:07;97275.25;;;6.19;64.55
36630;BME280;36256;42.154;23.002;2023-11-19T03:14:39;97274.50;;;6.18;63.83
36630;BME280;36256;42.154;23.002;2023-11-19T03:17:06;97268.94;;;6.18;63.91
36630;BME280;36256;42.154;23.002;2023-11-19T03:19:33;97272.84;;;6.21;65.31
36630;BME280;36256;42.154;23.002;2023-11-19T03:22:01;97274.72;;;6.04;65.67
36630;BME280;36256;42.154;23.002;2023-11-19T03:24:28;97275.78;;;6.14;65.02
36630;BME280;36256;42.154;23.002;2023-11-19T03:26:55;97267.47;;;6.10;64.93
36630;BME280;36256;42.154;23.002;2023-11-19T03:29:21;97279.00;;;6.12;65.07
36630;BME280;36256;42.154;23.002;2023-11-19T03:31:49;97268.69;;;6.09;65.38
36630;BME280;36256;42.154;23.002;2023-11-19T03:34:16;97269.03;;;6.11;65.88
36630;BME280;36256;42.154;23.002;2023-11-19T03:36:43;97273.19;;;6.03;65.92
36630;BME280;36256;42.154;23.002;2023-11-19T03:39:10;97275.72;;;5.94;65.83
36630;BME280;36256;42.154;23.002;2023-11-19T03:41:45;97265.44;;;5.91;66.54
36630;BME280;36256;42.154;23.002;2023-11-19T03:44:11;97272.69;;;5.85;66.75
36630;BME280;36256;42.154;23.002;2023-11-19T03:46:38;97272.69;;;5.85;66.38
36630;BME280;36256;42.154;23.002;2023-11-19T03:49:05;97265.56;;;5.84;66.53
36630;BME280;36256;42.154;23.002;2023-11-19T03:51:33;97294.59;;;6.06;65.71
36630;BME280;36256;42.154;23.002;2023-11-19T03:54:01;97293.63;;;6.16;65.66
36630;BME280;36256;42.154;23.002;2023-11-19T03:56:28;97306.22;;;6.24;65.74
36630;BME280;36256;42.154;23.002;2023-11-19T03:58:54;97303.81;;;6.26;65.28
36630;BME280;36256;42.154;23.002;2023-11-19T04:01:21;97316.47;;;6.31;65.12
36630;BME280;36256;42.154;23.002;2023-11-19T04:03:48;97313.50;;;6.18;65.27
36630;BME280;36256;42.154;23.002;2023-11-19T04:06:17;97322.44;;;6.06;65.33
36630;BME280;36256;42.154;23.002;2023-11-19T04:08:43;97314.59;;;6.24;65.52
36630;BME280;36256;42.154;23.002;2023-11-19T04:11:11;97320.88;;;6.28;66.02
36630;BME280;36256;42.154;23.002;2023-11-19T04:13:37;97315.78;;;6.23;65.72
36630;BME280;36256;42.154;23.002;2023-11-19T04:16:04;97320.59;;;6.23;66.10
36630;BME280;36256;42.154;23.002;2023-11-19T04:18:31;97314.94;;;6.26;65.17
36630;BME280;36256;42.154;23.002;2023-11-19T04:20:58;97329.31;;;6.25;64.59
36630;BME280;36256;42.154;23.002;2023-11-19T04:23:25;97320.00;;;6.31;65.68
36630;BME280;36256;42.154;23.002;2023-11-19T04:25:51;97325.97;;;6.10;65.29
36630;BME280;36256;42.154;23.002;2023-11-19T04:28:18;97313.50;;;6.18;65.86
36630;BME280;36256;42.154;23.002;2023-11-19T04:30:45;97323.59;;;6.32;65.96
36630;BME280;36256;42.154;23.002;2023-11-19T04:33:11;97328.53;;;6.24;65.26
36630;BME280;36256;42.154;23.002;2023-11-19T04:35:38;97327.78;;;6.20;65.46
36630;BME280;36256;42.154;23.002;2023-11-19T04:38:05;97306.34;;;6.17;65.63
36630;BME280;36256;42.154;23.002;2023-11-19T04:40:32;97331.78;;;6.19;65.07
36630;BME280;36256;42.154;23.002;2023-11-19T04:43:00;97331.97;;;6.09;64.55
36630;BME280;36256;42.154;23.002;2023-11-19T04:45:27;97344.00;;;6.25;65.15
36630;BME280;36256;42.154;23.002;2023-11-19T04:47:53;97359.53;;;6.26;65.41
36630;BME280;36256;42.154;23.002;2023-11-19T04:50:20;97357.00;;;6.36;66.97
36630;BME280;36256;42.154;23.002;2023-11-19T04:52:48;97354.69;;;6.30;66.21
36630;BME280;36256;42.154;23.002;2023-11-19T04:55:14;97353.97;;;6.26;67.10
36630;BME280;36256;42.154;23.002;2023-11-19T04:57:41;97355.66;;;6.20;68.36
36630;BME280;36256;42.154;23.002;2023-11-19T05:00:08;97351.78;;;6.14;68.01
36630;BME280;36256;42.154;23.002;2023-11-19T05:02:40;97357.72;;;6.16;67.10
36630;BME280;36256;42.154;23.002;2023-11-19T05:05:09;97342.13;;;6.19;67.29
36630;BME280;36256;42.154;23.002;2023-11-19T05:07:36;97355.88;;;6.06;68.19
36630;BME280;36256;42.154;23.002;2023-11-19T05:10:03;97358.25;;;6.08;67.38
36630;BME280;36256;42.154;23.002;2023-11-19T05:12:31;97337.72;;;5.98;68.49
36630;BME280;36256;42.154;23.002;2023-11-19T05:14:58;97365.47;;;6.05;68.31
36630;BME280;36256;42.154;23.002;2023-11-19T05:17:24;97376.59;;;6.05;68.74
36630;BME280;36256;42.154;23.002;2023-11-19T05:19:51;97387.06;;;5.98;67.95
36630;BME280;36256;42.154;23.002;2023-11-19T05:22:18;97386.00;;;5.88;68.58
36630;BME280;36256;42.154;23.002;2023-11-19T05:24:47;97380.38;;;5.92;68.50
36630;BME280;36256;42.154;23.002;2023-11-19T05:27:16;97384.75;;;5.93;67.31
36630;BME280;36256;42.154;23.002;2023-11-19T05:29:43;97385.44;;;6.00;66.59
36630;BME280;36256;42.154;23.002;2023-11-19T05:32:10;97382.41;;;5.91;65.62
36630;BME280;36256;42.154;23.002;2023-11-19T05:34:38;97373.72;;;5.86;66.08
36630;BME280;36256;42.154;23.002;2023-11-19T05:37:17;97374.41;;;5.93;66.88
36630;BME280;36256;42.154;23.002;2023-11-19T05:39:45;97372.75;;;5.96;66.17
36630;BME280;36256;42.154;23.002;2023-11-19T05:42:12;97363.94;;;6.01;66.69
36630;BME280;36256;42.154;23.002;2023-11-19T05:44:38;97382.84;;;6.13;66.68
36630;BME280;36256;42.154;23.002;2023-11-19T05:47:07;97374.72;;;5.99;67.15
36630;BME280;36256;42.154;23.002;2023-11-19T05:49:34;97387.75;;;6.05;67.08
36630;BME280;36256;42.154;23.002;2023-11-19T05:52:01;97380.47;;;6.11;66.73
36630;BME280;36256;42.154;23.002;2023-11-19T05:54:29;97378.94;;;6.07;66.46
36630;BME280;36256;42.154;23.002;2023-11-19T05:56:58;97389.22;;;5.83;68.06
36630;BME280;36256;42.154;23.002;2023-11-19T05:59:24;97370.50;;;5.87;68.52
36630;BME280;36256;42.154;23.002;2023-11-19T06:01:51;97380.66;;;6.01;67.31
36630;BME280;36256;42.154;23.002;2023-11-19T06:04:18;97381.44;;;6.01;66.95
36630;BME280;36256;42.154;23.002;2023-11-19T06:06:44;97384.69;;;5.96;67.53
36630;BME280;36256;42.154;23.002;2023-11-19T06:09:11;97353.16;;;5.76;67.36
36630;BME280;36256;42.154;23.002;2023-11-19T06:11:40;97387.13;;;5.94;66.83
36630;BME280;36256;42.154;23.002;2023-11-19T06:14:06;97409.97;;;6.09;66.77
36630;BME280;36256;42.154;23.002;2023-11-19T06:16:33;97419.00;;;6.16;67.28
36630;BME280;36256;42.154;23.002;2023-11-19T06:19:00;97411.47;;;6.13;67.01
36630;BME280;36256;42.154;23.002;2023-11-19T06:21:27;97410.84;;;6.02;66.88
36630;BME280;36256;42.154;23.002;2023-11-19T06:23:54;97419.94;;;6.06;67.87
36630;BME280;36256;42.154;23.002;2023-11-19T06:26:21;97405.09;;;6.16;67.24
36630;BME280;36256;42.154;23.002;2023-11-19T06:28:48;97417.69;;;6.24;66.89
36630;BME280;36256;42.154;23.002;2023-11-19T06:31:15;97418.03;;;6.26;66.84
36630;BME280;36256;42.154;23.002;2023-11-19T06:33:42;97419.25;;;6.25;67.81
36630;BME280;36256;42.154;23.002;2023-11-19T06:36:09;97408.34;;;6.11;66.52
36630;BME280;36256;42.154;23.002;2023-11-19T06:38:36;97416.31;;;6.09;69.02
36630;BME280;36256;42.154;23.002;2023-11-19T06:41:07;97404.56;;;5.98;68.75
36630;BME280;36256;42.154;23.002;2023-11-19T06:43:33;97414.88;;;6.01;68.47
36630;BME280;36256;42.154;23.002;2023-11-19T06:46:03;97427.84;;;6.11;68.01
36630;BME280;36256;42.154;23.002;2023-11-19T06:48:32;97420.63;;;5.87;68.13
36630;BME280;36256;42.154;23.002;2023-11-19T06:50:59;97411.16;;;5.81;67.74
36630;BME280;36256;42.154;23.002;2023-11-19T06:53:26;97413.44;;;5.90;68.08
36630;BME280;36256;42.154;23.002;2023-11-19T06:55:54;97430.06;;;5.97;69.73
36630;BME280;36256;42.154;23.002;2023-11-19T06:58:21;97430.63;;;6.11;68.88
36630;BME280;36256;42.154;23.002;2023-11-19T07:00:48;97413.53;;;6.09;68.23
36630;BME280;36256;42.154;23.002;2023-11-19T07:03:16;97426.66;;;6.12;68.20
36630;BME280;36256;42.154;23.002;2023-11-19T07:05:43;97428.50;;;6.19;68.35
36630;BME280;36256;42.154;23.002;2023-11-19T07:08:10;97430.25;;;6.09;68.08
36630;BME280;36256;42.154;23.002;2023-11-19T07:10:37;97423.47;;;6.10;66.58
36630;BME280;36256;42.154;23.002;2023-11-19T07:13:05;97435.09;;;6.05;67.98
36630;BME280;36256;42.154;23.002;2023-11-19T07:15:32;97440.56;;;6.12;69.27
36630;BME280;36256;42.154;23.002;2023-11-19T07:17:59;97429.97;;;6.04;67.50
36630;BME280;36256;42.154;23.002;2023-11-19T07:20:28;97434.59;;;6.10;68.29
36630;BME280;36256;42.154;23.002;2023-11-19T07:22:55;97443.09;;;6.03;67.59
36630;BME280;36256;42.154;23.002;2023-11-19T07:25:24;97457.84;;;6.00;67.06
36630;BME280;36256;42.154;23.002;2023-11-19T07:27:51;97451.16;;;5.94;67.20
36630;BME280;36256;42.154;23.002;2023-11-19T07:30:18;97439.94;;;6.01;68.13
36630;BME280;36256;42.154;23.002;2023-11-19T07:32:45;97420.53;;;5.94;68.32
36630;BME280;36256;42.154;23.002;2023-11-19T07:35:11;97451.16;;;5.94;68.76
36630;BME280;36256;42.154;23.002;2023-11-19T07:37:38;97450.72;;;5.99;68.88
36630;BME280;36256;42.154;23.002;2023-11-19T07:40:06;97449.09;;;6.02;68.31
36630;BME280;36256;42.154;23.002;2023-11-19T07:42:32;97462.00;;;5.89;68.75
36630;BME280;36256;42.154;23.002;2023-11-19T07:44:59;97481.06;;;5.90;68.86
36630;BME280;36256;42.154;23.002;2023-11-19T07:47:26;97485.03;;;5.89;68.97
36630;BME280;36256;42.154;23.002;2023-11-19T07:49:55;97480.69;;;5.88;67.82
36630;BME280;36256;42.154;23.002;2023-11-19T07:52:22;97469.94;;;5.90;67.97
36630;BME280;36256;42.154;23.002;2023-11-19T07:54:48;97473.09;;;5.92;69.02
36630;BME280;36256;42.154;23.002;2023-11-19T07:57:15;97464.41;;;5.87;67.30
36630;BME280;36256;42.154;23.002;2023-11-19T07:59:42;97456.00;;;5.90;67.67
36630;BME280;36256;42.154;23.002;2023-11-19T08:02:08;97453.69;;;5.85;67.35
36630;BME280;36256;42.154;23.002;2023-11-19T08:04:35;97454.03;;;5.87;66.86
36630;BME280;36256;42.154;23.002;2023-11-19T08:07:03;97462.75;;;5.93;66.53
36630;BME280;36256;42.154;23.002;2023-11-19T08:09:29;97456.50;;;5.82;68.17
36630;BME280;36256;42.154;23.002;2023-11-19T08:11:56;97463.69;;;5.79;67.27
36630;BME280;36256;42.154;23.002;2023-11-19T08:14:23;97452.91;;;5.81;67.03
36630;BME280;36256;42.154;23.002;2023-11-19T08:16:50;97451.75;;;5.79;66.76
36630;BME280;36256;42.154;23.002;2023-11-19T08:19:17;97452.25;;;6.04;66.17
36630;BME280;36256;42.154;23.002;2023-11-19T08:21:44;97452.69;;;5.99;65.99
36630;BME280;36256;42.154;23.002;2023-11-19T08:24:11;97464.13;;;6.08;66.95
36630;BME280;36256;42.154;23.002;2023-11-19T08:26:37;97474.38;;;6.14;66.74
36630;BME280;36256;42.154;23.002;2023-11-19T08:29:04;97473.50;;;6.17;66.45
36630;BME280;36256;42.154;23.002;2023-11-19T08:31:31;97471.44;;;6.21;65.23
36630;BME280;36256;42.154;23.002;2023-11-19T08:33:57;97478.25;;;6.20;64.80
36630;BME280;36256;42.154;23.002;2023-11-19T08:36:24;97468.63;;;6.25;66.64
36630;BME280;36256;42.154;23.002;2023-11-19T08:38:57;97467.72;;;6.31;66.04
36630;BME280;36256;42.154;23.002;2023-11-19T08:41:28;97471.13;;;6.43;67.39
36630;BME280;36256;42.154;23.002;2023-11-19T08:44:00;97465.06;;;6.48;65.33
36630;BME280;36256;42.154;23.002;2023-11-19T08:46:27;97458.69;;;7.36;62.87
36630;BME280;36256;42.154;23.002;2023-11-19T08:48:54;97458.03;;;7.68;60.18
36630;BME280;36256;42.154;23.002;2023-11-19T08:51:23;97454.75;;;7.34;60.58
36630;BME280;36256;42.154;23.002;2023-11-19T08:53:51;97457.88;;;7.16;61.08
36630;BME280;36256;42.154;23.002;2023-11-19T08:56:17;97461.66;;;7.06;61.90
36630;BME280;36256;42.154;23.002;2023-11-19T08:58:47;97493.06;;;7.10;62.83
36630;BME280;36256;42.154;23.002;2023-11-19T09:01:14;97485.69;;;7.00;62.12
36630;BME280;36256;42.154;23.002;2023-11-19T09:03:40;97469.78;;;6.97;60.98
36630;BME280;36256;42.154;23.002;2023-11-19T09:06:07;97474.63;;;7.16;62.47
36630;BME280;36256;42.154;23.002;2023-11-19T09:08:37;97477.94;;;7.31;60.56
36630;BME280;36256;42.154;23.002;2023-11-19T09:11:07;97481.44;;;7.54;60.54
36630;BME280;36256;42.154;23.002;2023-11-19T09:13:35;97482.81;;;7.66;59.48
36630;BME280;36256;42.154;23.002;2023-11-19T09:16:02;97471.88;;;7.55;59.76
36630;BME280;36256;42.154;23.002;2023-11-19T09:18:32;97467.75;;;7.79;58.68
36630;BME280;36256;42.154;23.002;2023-11-19T09:21:02;97460.69;;;7.75;59.36
36630;BME280;36256;42.154;23.002;2023-11-19T09:23:29;97453.31;;;8.01;59.02
36630;BME280;36256;42.154;23.002;2023-11-19T09:25:59;97457.81;;;7.78;57.63
36630;BME280;36256;42.154;23.002;2023-11-19T09:28:26;97462.34;;;7.72;59.00
36630;BME280;36256;42.154;23.002;2023-11-19T09:30:53;97442.78;;;7.72;59.09
36630;BME280;36256;42.154;23.002;2023-11-19T09:33:19;97430.91;;;7.68;58.81
36630;BME280;36256;42.154;23.002;2023-11-19T09:35:49;97428.13;;;7.84;58.88
36630;BME280;36256;42.154;23.002;2023-11-19T09:38:16;97435.53;;;8.11;60.28
36630;BME280;36256;42.154;23.002;2023-11-19T09:40:43;97446.25;;;8.32;57.76
36630;BME280;36256;42.154;23.002;2023-11-19T09:43:10;97449.31;;;8.37;59.95
36630;BME280;36256;42.154;23.002;2023-11-19T09:45:58;97433.84;;;8.49;57.74
36630;BME280;36256;42.154;23.002;2023-11-19T09:48:24;97416.53;;;8.38;57.74
36630;BME280;36256;42.154;23.002;2023-11-19T09:50:51;97417.25;;;8.42;57.72
36630;BME280;36256;42.154;23.002;2023-11-19T09:53:18;97405.53;;;8.31;59.03
36630;BME280;36256;42.154;23.002;2023-11-19T09:55:46;97404.97;;;8.04;60.35
36630;BME280;36256;42.154;23.002;2023-11-19T09:58:14;97392.88;;;7.90;57.99
36630;BME280;36256;42.154;23.002;2023-11-19T10:00:41;97391.91;;;7.81;58.63
36630;BME280;36256;42.154;23.002;2023-11-19T10:03:13;97390.53;;;7.53;59.01
36630;BME280;36256;42.154;23.002;2023-11-19T10:05:40;97389.25;;;7.38;59.04
36630;BME280;36256;42.154;23.002;2023-11-19T10:08:07;97391.56;;;7.43;60.77
36630;BME280;36256;42.154;23.002;2023-11-19T10:10:34;97395.31;;;7.53;60.18
36630;BME280;36256;42.154;23.002;2023-11-19T10:13:03;97402.97;;;7.68;60.39
36630;BME280;36256;42.154;23.002;2023-11-19T10:15:35;97391.69;;;7.56;58.82
36630;BME280;36256;42.154;23.002;2023-11-19T10:18:03;97384.59;;;7.51;58.20
36630;BME280;36256;42.154;23.002;2023-11-19T10:20:40;97373.22;;;7.42;58.13
36630;BME280;36256;42.154;23.002;2023-11-19T10:23:07;97375.34;;;7.54;59.64
36630;BME280;36256;42.154;23.002;2023-11-19T10:25:34;97361.63;;;7.96;58.71
36630;BME280;36256;42.154;23.002;2023-11-19T10:28:00;97368.31;;;8.34;57.58
36630;BME280;36256;42.154;23.002;2023-11-19T10:30:29;97334.06;;;8.46;55.56
36630;BME280;36256;42.154;23.002;2023-11-19T10:33:13;97341.00;;;8.70;55.44
36630;BME280;36256;42.154;23.002;2023-11-19T10:35:57;97339.69;;;9.03;57.88
36630;BME280;36256;42.154;23.002;2023-11-19T10:38:27;97329.53;;;9.22;55.09
36630;BME280;36256;42.154;23.002;2023-11-19T10:40:54;97340.59;;;9.54;55.64
36630;BME280;36256;42.154;23.002;2023-11-19T10:43:22;97347.00;;;9.67;56.08
36630;BME280;36256;42.154;23.002;2023-11-19T10:45:49;97339.13;;;9.75;52.92
36630;BME280;36256;42.154;23.002;2023-11-19T10:48:16;97344.19;;;9.80;54.63
36630;BME280;36256;42.154;23.002;2023-11-19T10:50:44;97342.06;;;9.59;51.92
36630;BME280;36256;42.154;23.002;2023-11-19T10:53:12;97341.56;;;9.06;53.39
36630;BME280;36256;42.154;23.002;2023-11-19T10:55:47;97351.06;;;8.96;54.35
36630;BME280;36256;42.154;23.002;2023-11-19T10:58:16;97357.88;;;8.66;54.66
36630;BME280;36256;42.154;23.002;2023-11-19T11:00:54;97333.53;;;8.35;55.54
36630;BME280;36256;42.154;23.002;2023-11-19T11:03:24;97339.81;;;8.39;55.66
36630;BME280;36256;42.154;23.002;2023-11-19T11:05:53;97329.31;;;8.59;55.47
36630;BME280;36256;42.154;23.002;2023-11-19T11:08:20;97335.94;;;8.65;55.63
36630;BME280;36256;42.154;23.002;2023-11-19T11:10:55;97322.88;;;8.75;58.53
36630;BME280;36256;42.154;23.002;2023-11-19T11:13:24;97329.75;;;8.86;54.61
36630;BME280;36256;42.154;23.002;2023-11-19T11:15:52;97317.78;;;9.14;56.09
36630;BME280;36256;42.154;23.002;2023-11-19T11:18:21;97308.47;;;9.17;54.52
36630;BME280;36256;42.154;23.002;2023-11-19T11:20:49;97304.13;;;9.16;53.90
36630;BME280;36256;42.154;23.002;2023-11-19T11:29:16;97289.03;;;9.39;53.15
36630;BME280;36256;42.154;23.002;2023-11-19T11:37:27;97302.78;;;9.33;53.48
36630;BME280;36256;42.154;23.002;2023-11-19T11:40:01;97297.31;;;9.42;54.17
36630;BME280;36256;42.154;23.002;2023-11-19T11:42:32;97296.09;;;9.43;53.47
36630;BME280;36256;42.154;23.002;2023-11-19T11:45:04;97288.22;;;9.26;53.91
36630;BME280;36256;42.154;23.002;2023-11-19T11:50:14;97278.72;;;9.74;53.65
36630;BME280;36256;42.154;23.002;2023-11-19T11:55:37;97277.03;;;9.64;52.82
36630;BME280;36256;42.154;23.002;2023-11-19T11:58:06;97266.97;;;9.66;52.73
36630;BME280;36256;42.154;23.002;2023-11-19T12:00:38;97263.69;;;9.80;54.83
36630;BME280;36256;42.154;23.002;2023-11-19T12:03:06;97270.31;;;9.99;52.31
36630;BME280;36256;42.154;23.002;2023-11-19T12:05:38;97272.84;;;10.06;51.41
36630;BME280;36256;42.154;23.002;2023-11-19T12:08:06;97262.66;;;10.12;51.89
36630;BME280;36256;42.154;23.002;2023-11-19T12:10:43;97242.19;;;9.90;52.06
36630;BME280;36256;42.154;23.002;2023-11-19T12:13:10;97242.28;;;9.99;52.07
36630;BME280;36256;42.154;23.002;2023-11-19T12:18:26;97249.56;;;9.96;51.74
36630;BME280;36256;42.154;23.002;2023-11-19T12:20:53;97243.72;;;9.91;52.23
36630;BME280;36256;42.154;23.002;2023-11-19T12:23:22;97244.28;;;9.98;51.99
36630;BME280;36256;42.154;23.002;2023-11-19T12:25:51;97229.75;;;9.66;51.69
36630;BME280;36256;42.154;23.002;2023-11-19T12:28:18;97249.47;;;9.75;52.33
36630;BME280;36256;42.154;23.002;2023-11-19T12:30:45;97264.00;;;9.95;53.79
36630;BME280;36256;42.154;23.002;2023-11-19T12:33:13;97257.75;;;9.91;52.77
36630;BME280;36256;42.154;23.002;2023-11-19T12:38:21;97245.63;;;10.19;51.68
36630;BME280;36256;42.154;23.002;2023-11-19T12:41:04;97232.16;;;10.14;50.70
36630;BME280;36256;42.154;23.002;2023-11-19T12:43:31;97239.78;;;10.26;50.81
36630;BME280;36256;42.154;23.002;2023-11-19T12:46:21;97206.81;;;10.17;51.02
36630;BME280;36256;42.154;23.002;2023-11-19T12:48:49;97210.16;;;10.25;53.12
36630;BME280;36256;42.154;23.002;2023-11-19T12:51:17;97198.69;;;10.32;50.20
36630;BME280;36256;42.154;23.002;2023-11-19T12:53:51;97206.66;;;10.55;51.42
36630;BME280;36256;42.154;23.002;2023-11-19T12:56:21;97203.78;;;10.46;49.89
36630;BME280;36256;42.154;23.002;2023-11-19T12:58:49;97209.41;;;10.46;52.44
36630;BME280;36256;42.154;23.002;2023-11-19T13:01:20;97209.97;;;10.63;51.87
36630;BME280;36256;42.154;23.002;2023-11-19T13:03:47;97204.78;;;10.74;53.03
36630;BME280;36256;42.154;23.002;2023-11-19T13:06:18;97201.31;;;10.91;51.86
36630;BME280;36256;42.154;23.002;2023-11-19T13:08:48;97191.63;;;10.92;50.41
36630;BME280;36256;42.154;23.002;2023-11-19T13:11:32;97186.34;;;10.94;52.91
36630;BME280;36256;42.154;23.002;2023-11-19T13:13:59;97188.25;;;10.97;52.47
36630;BME280;36256;42.154;23.002;2023-11-19T13:16:27;97177.91;;;10.94;50.87
36630;BME280;36256;42.154;23.002;2023-11-19T13:18:54;97186.41;;;11.03;51.68
36630;BME280;36256;42.154;23.002;2023-11-19T13:21:27;97194.81;;;11.03;50.62
36630;BME280;36256;42.154;23.002;2023-11-19T13:23:54;97190.06;;;10.91;49.74
36630;BME280;36256;42.154;23.002;2023-11-19T13:26:24;97180.69;;;10.85;49.16
36630;BME280;36256;42.154;23.002;2023-11-19T13:28:51;97194.53;;;10.80;48.66
36630;BME280;36256;42.154;23.002;2023-11-19T13:31:18;97193.09;;;10.54;48.36